Time;durP1;ratioP1;P1;durP2;ratioP2;P2;SDS_P1;SDS_P2;PMS_P1;PMS_P2;Temp;Humidity;BMP_temperature;BMP_pressure;BME280_temperature;BME280_humidity;BME280_pressure;Samples;Min_cycle;Max_cycle;Signal;HPM_P1;HPM_P2
2022/04/16 00:00:33;;;;;;;3.07;2.87;;;12.20;93.70;;;;;;5053803;28;20449;-58
2022/04/16 00:03:00;;;;;;;3.27;2.40;;;12.30;94.00;;;;;;5054214;28;20552;-58
2022/04/16 00:05:28;;;;;;;2.93;2.73;;;12.30;93.90;;;;;;5053793;28;20450;-58
2022/04/16 00:08:10;;;;;;;2.87;2.67;;;12.20;93.60;;;;;;5052919;28;20466;-58
2022/04/16 00:10:39;;;;;;;2.80;2.60;;;12.20;93.40;;;;;;5053721;28;20440;-59
2022/04/16 00:13:08;;;;;;;3.10;2.77;;;11.90;93.80;;;;;;5054024;28;20449;-59
2022/04/16 00:15:36;;;;;;;2.57;2.37;;;11.90;93.80;;;;;;5053557;28;20457;-59
2022/04/16 00:18:03;;;;;;;2.87;2.43;;;11.70;94.10;;;;;;5053438;28;20842;-59
2022/04/16 00:20:33;;;;;;;3.30;2.70;;;11.60;94.20;;;;;;5053882;28;20809;-59
2022/04/16 00:23:00;;;;;;;3.07;2.87;;;11.70;94.30;;;;;;5053552;28;20458;-59
2022/04/16 00:25:30;;;;;;;3.40;3.20;;;11.80;94.50;;;;;;5053489;28;20556;-60
2022/04/16 00:27:58;;;;;;;3.83;3.40;;;11.80;94.20;;;;;;5053461;28;20990;-61
2022/04/16 00:30:26;;;;;;;3.67;2.83;;;11.70;94.50;;;;;;5053298;28;20967;-58
2022/04/16 00:32:55;;;;;;;2.73;2.53;;;11.70;94.80;;;;;;5053506;28;20456;-58
2022/04/16 00:35:23;;;;;;;3.20;3.00;;;11.60;94.40;;;;;;5053588;28;20453;-59
2022/04/16 00:37:51;;;;;;;2.77;2.57;;;11.60;94.40;;;;;;5053713;28;20473;-61
2022/04/16 00:40:18;;;;;;;2.83;2.63;;;11.60;94.60;;;;;;5053245;28;20998;-59
2022/04/16 00:42:45;;;;;;;2.77;2.40;;;11.50;94.90;;;;;;5053682;28;20445;-61
2022/04/16 00:45:13;;;;;;;2.70;2.50;;;11.60;94.60;;;;;;5053571;28;20457;-59
2022/04/16 00:47:41;;;;;;;2.90;2.70;;;11.70;94.70;;;;;;5053054;28;20991;-60
2022/04/16 00:50:10;;;;;;;2.90;2.30;;;11.60;94.80;;;;;;5053546;28;20481;-60
2022/04/16 00:52:38;;;;;;;2.93;2.73;;;11.50;94.60;;;;;;5053157;28;20835;-60
2022/04/16 00:55:06;;;;;;;2.80;2.60;;;11.50;94.60;;;;;;5053211;28;20552;-59
2022/04/16 00:57:33;;;;;;;3.40;2.50;;;11.40;94.70;;;;;;5053214;28;20551;-60
2022/04/16 01:00:02;;;;;;;3.33;2.80;;;11.30;94.50;;;;;;5053317;28;20445;-59
2022/04/16 01:02:29;;;;;;;2.90;2.70;;;11.30;94.70;;;;;;5053140;28;20540;-60
2022/04/16 01:04:57;;;;;;;3.50;3.20;;;11.30;94.80;;;;;;5053493;28;20445;-60
2022/04/16 01:07:25;;;;;;;2.77;2.57;;;11.30;94.70;;;;;;5053361;28;20473;-60
2022/04/16 01:09:52;;;;;;;3.10;2.90;;;11.30;94.80;;;;;;5053163;28;20481;-59
2022/04/16 01:12:20;;;;;;;2.83;2.60;;;11.20;94.90;;;;;;5053291;28;20579;-59
2022/04/16 01:14:47;;;;;;;2.70;2.50;;;11.30;95.20;;;;;;5053418;28;20453;-59
2022/04/16 01:17:15;;;;;;;2.70;2.50;;;11.30;94.80;;;;;;5053272;28;20944;-59
2022/04/16 01:19:43;;;;;;;2.87;2.57;;;11.30;95.10;;;;;;5054997;28;20481;-59
2022/04/16 01:22:13;;;;;;;2.90;2.70;;;11.20;95.10;;;;;;5057334;28;20448;-59
2022/04/16 01:24:48;;;;;;;2.90;2.70;;;11.10;95.30;;;;;;5057172;28;20445;-59
2022/04/16 01:27:15;;;;;;;3.93;2.97;;;11.20;95.60;;;;;;5056814;28;20429;-59
2022/04/16 01:29:44;;;;;;;3.03;2.83;;;11.10;95.40;;;;;;5056561;28;21062;-59
2022/04/16 01:32:11;;;;;;;3.03;2.67;;;11.10;95.50;;;;;;5056904;28;20536;-59
2022/04/16 01:34:38;;;;;;;2.70;2.50;;;11.20;96.10;;;;;;5056760;28;21045;-59
2022/04/16 01:37:06;;;;;;;5.47;3.10;;;11.20;95.60;;;;;;5056742;28;20536;-59
2022/04/16 01:39:37;;;;;;;3.30;2.93;;;11.20;95.20;;;;;;5056620;28;20441;-59
2022/04/16 01:42:06;;;;;;;3.20;2.53;;;11.10;95.40;;;;;;5056778;28;20536;-59
2022/04/16 01:44:34;;;;;;;3.00;2.80;;;11.10;95.80;;;;;;5056963;28;20456;-60
2022/04/16 01:47:04;;;;;;;2.53;2.33;;;11.10;95.70;;;;;;5056572;28;20532;-59
2022/04/16 01:49:35;;;;;;;3.43;2.97;;;11.00;95.80;;;;;;5056381;28;20487;-59
2022/04/16 01:52:03;;;;;;;3.80;3.40;;;11.00;96.10;;;;;;5056380;28;20465;-59
2022/04/16 01:54:30;;;;;;;3.30;3.00;;;11.00;96.20;;;;;;5056691;28;20445;-60
2022/04/16 01:56:58;;;;;;;2.90;2.67;;;11.00;96.20;;;;;;5056413;28;20487;-59
2022/04/16 01:59:27;;;;;;;4.00;3.60;;;10.80;96.00;;;;;;5056630;28;20469;-59
2022/04/16 02:01:56;;;;;;;3.10;2.90;;;10.70;96.10;;;;;;5056350;28;20449;-60
2022/04/16 02:04:24;;;;;;;2.83;2.63;;;10.80;96.20;;;;;;5056381;28;20964;-60
2022/04/16 02:06:52;;;;;;;2.60;2.40;;;10.90;96.00;;;;;;5056100;28;20449;-59
2022/04/16 02:09:19;;;;;;;2.97;2.77;;;10.90;96.40;;;;;;5056192;28;20489;-60
2022/04/16 02:11:46;;;;;;;2.70;2.50;;;10.90;96.30;;;;;;5056198;28;20838;-60
2022/04/16 02:14:18;;;;;;;3.30;3.03;;;10.80;96.70;;;;;;5056248;28;20467;-60
2022/04/16 02:16:46;;;;;;;2.90;2.70;;;10.80;96.80;;;;;;5056177;28;20472;-60
2022/04/16 02:19:14;;;;;;;3.80;3.40;;;;;;;;;;5055670;28;20469;-59
2022/04/16 02:21:41;;;;;;;3.57;3.27;;;10.50;96.30;;;;;;5056145;28;20450;-59
2022/04/16 02:24:09;;;;;;;3.00;2.80;;;10.50;97.60;;;;;;5056018;28;20456;-59
2022/04/16 02:26:36;;;;;;;3.43;3.13;;;10.50;96.90;;;;;;5056097;28;20464;-59
2022/04/16 02:29:04;;;;;;;3.10;2.80;;;10.50;97.40;;;;;;5055507;28;20998;-59
2022/04/16 02:31:31;;;;;;;2.97;2.77;;;10.60;97.50;;;;;;5054470;28;20599;-59
2022/04/16 02:34:05;;;;;;;3.13;2.93;;;10.60;97.80;;;;;;5055964;28;20512;-59
2022/04/16 02:36:32;;;;;;;3.57;3.27;;;10.50;97.90;;;;;;5055786;28;20816;-59
2022/04/16 02:38:59;;;;;;;6.20;3.13;;;10.50;97.70;;;;;;5055357;28;20465;-59
2022/04/16 02:41:27;;;;;;;5.23;2.80;;;10.50;97.60;;;;;;5055496;28;20964;-59
2022/04/16 02:43:54;;;;;;;3.43;3.13;;;10.50;98.00;;;;;;5055764;28;20463;-60
2022/04/16 02:49:08;;;;;;;3.70;3.33;;;10.50;98.30;;;;;;5055244;28;20487;-59
2022/04/16 02:51:35;;;;;;;4.40;3.37;;;10.50;98.30;;;;;;5055242;28;20450;-60
2022/04/16 02:54:03;;;;;;;3.23;2.83;;;10.50;98.60;;;;;;5055262;28;20977;-59
2022/04/16 02:56:30;;;;;;;3.60;3.37;;;10.50;98.50;;;;;;5055076;28;20556;-59
2022/04/16 02:58:57;;;;;;;3.03;2.83;;;10.40;98.20;;;;;;5055134;28;20989;-59
2022/04/16 03:01:24;;;;;;;3.53;3.20;;;10.40;98.60;;;;;;5054961;28;20461;-59
2022/04/16 03:03:51;;;;;;;7.00;3.07;;;10.20;98.90;;;;;;5055234;28;20449;-59
2022/04/16 03:06:20;;;;;;;3.83;3.53;;;10.20;99.60;;;;;;5054953;28;20967;-59
2022/04/16 03:08:47;;;;;;;3.50;3.20;;;10.20;99.40;;;;;;5055012;28;20469;-59
2022/04/16 03:11:14;;;;;;;13.60;4.13;;;10.20;99.60;;;;;;5054736;28;20493;-59
2022/04/16 03:13:41;;;;;;;3.50;3.20;;;10.20;99.40;;;;;;5055166;28;20483;-59
2022/04/16 03:18:52;;;;;;;3.30;3.00;;;10.00;99.90;;;;;;5054771;28;20858;-59
2022/04/16 03:21:21;;;;;;;3.10;2.90;;;9.90;99.90;;;;;;5054953;28;20986;-62
2022/04/16 03:23:48;;;;;;;3.20;2.90;;;9.90;99.90;;;;;;5054627;28;20445;-59
2022/04/16 03:26:16;;;;;;;3.90;3.10;;;9.90;99.90;;;;;;5054831;28;20463;-59
2022/04/16 03:28:43;;;;;;;4.00;3.50;;;9.90;99.90;;;;;;5054651;28;20476;-59
2022/04/16 03:31:10;;;;;;;3.97;3.57;;;10.00;99.90;;;;;;5054240;28;20493;-59
2022/04/16 03:33:38;;;;;;;4.93;3.63;;;10.00;99.90;;;;;;5054625;28;20445;-59
2022/04/16 03:36:07;;;;;;;4.37;3.97;;;9.90;99.90;;;;;;5054555;28;20457;-59
2022/04/16 03:38:36;;;;;;;3.50;3.20;;;10.00;99.90;;;;;;5054379;28;20834;-59
2022/04/16 03:41:03;;;;;;;4.20;3.63;;;10.00;99.90;;;;;;5054604;28;20442;-60
2022/04/16 03:43:30;;;;;;;3.60;3.30;;;9.90;99.90;;;;;;5054330;28;20452;-60
2022/04/16 03:45:58;;;;;;;3.57;3.27;;;9.80;99.90;;;;;;5054213;28;20456;-59
2022/04/16 03:48:25;;;;;;;3.33;3.03;;;9.80;99.90;;;;;;5054484;28;20481;-59
2022/04/16 03:50:52;;;;;;;3.93;3.30;;;9.80;99.90;;;;;;5053868;28;20477;-60
2022/04/16 03:53:20;;;;;;;3.73;3.43;;;9.80;99.90;;;;;;5054230;28;20446;-60
2022/04/16 04:01:17;;;;;;;3.60;3.30;;;9.80;99.90;;;;;;5054106;28;20409;-59
2022/04/16 04:03:46;;;;;;;3.33;3.07;;;9.80;99.90;;;;;;5054065;28;20444;-59
2022/04/16 04:06:14;;;;;;;3.03;2.73;;;9.90;99.90;;;;;;5053799;28;20456;-61
2022/04/16 04:08:41;;;;;;;4.27;3.97;;;9.80;99.90;;;;;;5053915;28;20548;-60
2022/04/16 04:11:10;;;;;;;4.50;3.33;;;9.80;99.90;;;;;;5053572;28;20483;-60
2022/04/16 04:13:38;;;;;;;4.40;4.00;;;9.50;99.90;;;;;;5053619;28;20461;-60
2022/04/16 04:16:05;;;;;;;4.30;3.43;;;9.40;99.90;;;;;;5053698;28;20445;-60
2022/04/16 04:18:32;;;;;;;4.60;3.40;;;9.50;99.90;;;;;;5053460;28;20469;-60
2022/04/16 04:21:00;;;;;;;6.40;3.47;;;9.40;99.90;;;;;;5053466;28;20441;-59
2022/04/16 04:23:27;;;;;;;3.97;3.47;;;9.30;99.90;;;;;;5053520;28;20507;-59
2022/04/16 04:25:54;;;;;;;3.37;3.10;;;9.30;99.90;;;;;;5053817;28;20457;-61
2022/04/16 04:28:22;;;;;;;4.17;3.77;;;9.30;99.90;;;;;;5053317;28;20475;-60
2022/04/16 04:30:50;;;;;;;4.07;3.70;;;9.30;99.90;;;;;;5053176;28;20489;-59
2022/04/16 04:33:17;;;;;;;3.83;3.53;;;9.40;99.90;;;;;;5053755;28;20445;-61
2022/04/16 04:35:44;;;;;;;3.50;3.23;;;9.50;99.90;;;;;;5053266;28;20449;-60
2022/04/16 04:38:11;;;;;;;3.80;3.50;;;9.60;99.90;;;;;;5053472;28;20469;-60
2022/04/16 04:40:39;;;;;;;4.00;3.60;;;9.60;99.90;;;;;;5053233;28;20452;-59
2022/04/16 04:43:06;;;;;;;3.70;3.37;;;9.60;99.90;;;;;;5053469;28;20449;-60
2022/04/16 04:45:34;;;;;;;4.00;3.70;;;9.70;99.90;;;;;;5053491;28;20536;-60
2022/04/16 04:48:01;;;;;;;3.80;3.40;;;9.80;99.90;;;;;;5053191;28;20469;-60
2022/04/16 04:50:28;;;;;;;4.67;4.23;;;9.80;99.90;;;;;;5053037;28;20485;-60
2022/04/16 04:52:56;;;;;;;4.07;3.73;;;9.90;99.90;;;;;;5053117;28;20445;-61
2022/04/16 04:55:23;;;;;;;3.90;3.60;;;9.90;99.90;;;;;;5052731;28;20488;-60
2022/04/16 04:57:54;;;;;;;4.03;3.43;;;10.00;99.90;;;;;;5052974;28;20469;-60
2022/04/16 05:00:21;;;;;;;4.27;3.97;;;10.00;99.90;;;;;;5053053;28;20425;-59
2022/04/16 05:02:50;;;;;;;4.27;3.87;;;9.80;99.90;;;;;;5053491;28;20449;-60
2022/04/16 05:05:18;;;;;;;3.87;3.47;;;9.80;99.90;;;;;;5053244;28;20453;-60
2022/04/16 05:07:45;;;;;;;3.73;3.37;;;9.80;99.90;;;;;;5052870;28;20469;-59
2022/04/16 05:10:12;;;;;;;4.23;3.80;;;9.80;99.90;;;;;;5053146;28;20488;-60
2022/04/16 05:12:40;;;;;;;4.17;3.80;;;9.70;99.90;;;;;;5052972;28;20451;-60
2022/04/16 05:15:08;;;;;;;4.10;3.80;;;9.80;99.90;;;;;;5052913;28;20545;-59
2022/04/16 05:17:37;;;;;;;3.93;3.40;;;9.90;99.90;;;;;;5053191;28;20464;-60
2022/04/16 05:20:08;;;;;;;4.37;4.07;;;9.90;99.90;;;;;;5053341;28;20822;-60
2022/04/16 05:22:35;;;;;;;4.77;4.37;;;10.00;99.90;;;;;;5052607;28;20456;-60
2022/04/16 05:25:02;;;;;;;4.87;4.47;;;10.00;99.90;;;;;;5052778;28;20461;-60
2022/04/16 05:27:30;;;;;;;5.40;4.90;;;10.10;99.90;;;;;;5053088;28;20465;-59
2022/04/16 05:30:06;;;;;;;3.60;3.30;;;10.10;99.90;;;;;;5052535;28;21002;-59
2022/04/16 05:32:37;;;;;;;3.57;3.27;;;10.20;99.90;;;;;;5052824;28;20452;-59
2022/04/16 05:35:07;;;;;;;3.63;3.43;;;10.10;99.90;;;;;;5052665;28;20444;-59
2022/04/16 05:37:35;;;;;;;4.00;3.70;;;10.00;99.90;;;;;;5053098;28;20465;-59
2022/04/16 05:40:02;;;;;;;5.00;3.60;;;10.10;99.90;;;;;;5052471;28;20449;-60
2022/04/16 05:42:29;;;;;;;3.90;3.60;;;10.20;99.90;;;;;;5052607;28;20445;-60
2022/04/16 05:45:01;;;;;;;4.87;4.37;;;10.20;99.90;;;;;;5053001;28;20460;-60
2022/04/16 05:47:28;;;;;;;3.17;2.87;;;10.30;99.90;;;;;;5052540;28;20998;-60
2022/04/16 05:49:56;;;;;;;3.70;3.40;;;10.40;99.90;;;;;;5052817;28;20445;-60
2022/04/16 05:52:24;;;;;;;4.60;4.07;;;10.50;99.90;;;;;;5052965;28;20449;-60
2022/04/16 05:54:52;;;;;;;4.93;3.93;;;10.50;99.90;;;;;;5052813;28;20520;-60
2022/04/16 05:57:20;;;;;;;3.70;3.40;;;10.40;99.90;;;;;;5052713;28;20433;-60
2022/04/16 05:59:49;;;;;;;4.77;3.43;;;10.40;99.90;;;;;;5052424;28;20459;-60
2022/04/16 06:02:16;;;;;;;5.67;4.00;;;10.30;99.90;;;;;;5052833;28;20507;-60
2022/04/16 06:04:43;;;;;;;4.80;4.40;;;10.40;99.90;;;;;;5052420;28;20445;-60
2022/04/16 06:07:10;;;;;;;4.00;3.67;;;10.50;99.90;;;;;;5054840;28;20540;-60
2022/04/16 06:09:39;;;;;;;4.27;3.97;;;10.60;99.90;;;;;;5055935;28;20536;-60
2022/04/16 06:12:07;;;;;;;4.47;4.07;;;10.70;99.90;;;;;;5056036;28;20564;-60
2022/04/16 06:14:34;;;;;;;4.10;3.70;;;10.50;99.90;;;;;;5055784;28;20456;-59
2022/04/16 06:17:01;;;;;;;4.40;4.00;;;10.50;99.90;;;;;;5056284;28;20445;-60
2022/04/16 06:19:29;;;;;;;5.17;4.67;;;10.40;99.90;;;;;;5055891;28;20452;-60
2022/04/16 06:21:56;;;;;;;6.40;4.00;;;10.10;99.90;;;;;;5055775;28;20536;-60
2022/04/16 06:24:23;;;;;;;4.70;4.30;;;10.10;99.90;;;;;;5055711;28;20951;-60
2022/04/16 06:26:51;;;;;;;4.40;3.90;;;10.50;99.90;;;;;;5056145;28;20480;-60
2022/04/16 06:29:19;;;;;;;5.00;4.10;;;10.50;99.90;;;;;;5055494;28;20859;-60
2022/04/16 06:31:46;;;;;;;5.70;4.50;;;10.50;99.90;;;;;;5055589;28;20475;-60
2022/04/16 06:34:13;;;;;;;4.83;4.00;;;10.50;99.90;;;;;;5055787;28;20458;-60
2022/04/16 06:36:40;;;;;;;4.30;3.90;;;10.50;99.90;;;;;;5055733;28;20808;-60
2022/04/16 06:39:07;;;;;;;4.93;4.53;;;10.50;99.90;;;;;;5055592;28;20473;-60
2022/04/16 06:41:34;;;;;;;4.50;4.10;;;10.70;99.90;;;;;;5055502;28;20437;-60
2022/04/16 06:44:03;;;;;;;5.00;4.37;;;10.50;99.90;;;;;;5055436;28;20540;-60
2022/04/16 06:46:30;;;;;;;6.07;5.57;;;10.50;99.90;;;;;;5055554;28;20445;-60
2022/04/16 06:48:57;;;;;;;5.70;5.20;;;10.60;99.90;;;;;;5055175;28;20519;-60
2022/04/16 06:51:26;;;;;;;4.80;4.40;;;10.70;99.90;;;;;;5055347;28;20481;-60
2022/04/16 06:53:53;;;;;;;4.77;4.37;;;10.60;99.90;;;;;;5055263;28;20481;-60
2022/04/16 06:56:20;;;;;;;5.67;5.10;;;10.60;99.90;;;;;;5055413;28;20461;-60
2022/04/16 06:58:47;;;;;;;5.00;4.43;;;10.40;99.90;;;;;;5054995;28;20896;-60
2022/04/16 07:01:16;;;;;;;4.70;4.30;;;10.40;99.90;;;;;;5055266;28;20534;-61
2022/04/16 07:03:43;;;;;;;7.40;5.47;;;10.40;99.90;;;;;;5055163;28;20457;-60
2022/04/16 07:06:10;;;;;;;5.00;4.60;;;10.50;99.90;;;;;;5054817;28;20445;-60
2022/04/16 07:08:37;;;;;;;5.53;4.77;;;10.60;99.90;;;;;;5055082;28;20469;-60
2022/04/16 07:11:04;;;;;;;5.07;4.60;;;10.40;99.90;;;;;;5055088;28;20480;-60
2022/04/16 07:13:32;;;;;;;5.23;4.80;;;10.50;99.90;;;;;;5055063;28;20445;-60
2022/04/16 07:15:59;;;;;;;4.70;4.30;;;10.60;99.90;;;;;;5054794;28;20445;-60
2022/04/16 07:18:27;;;;;;;4.87;4.47;;;10.50;99.90;;;;;;5054432;28;20472;-60
2022/04/16 07:20:54;;;;;;;5.40;4.90;;;10.50;99.90;;;;;;5054637;28;20477;-60
2022/04/16 07:23:21;;;;;;;5.50;4.97;;;10.60;99.90;;;;;;5054657;28;20445;-60
2022/04/16 07:25:49;;;;;;;5.90;5.27;;;10.70;99.90;;;;;;5054830;28;20552;-60
2022/04/16 07:28:21;;;;;;;5.80;5.20;;;10.60;99.90;;;;;;5054413;28;20465;-59
2022/04/16 07:30:48;;;;;;;5.50;4.43;;;10.60;99.90;;;;;;5054054;28;20495;-59
2022/04/16 07:33:16;;;;;;;6.40;5.33;;;10.60;99.90;;;;;;5054687;28;20453;-59
2022/04/16 07:35:45;;;;;;;5.03;4.63;;;10.60;99.90;;;;;;5054600;28;20536;-59
2022/04/16 07:38:12;;;;;;;6.23;5.63;;;10.80;99.90;;;;;;5054371;28;20473;-59
2022/04/16 07:40:39;;;;;;;5.20;4.70;;;10.80;99.90;;;;;;5054493;28;20533;-59
2022/04/16 07:43:07;;;;;;;6.90;5.03;;;11.00;99.90;;;;;;5054088;28;20516;-59
2022/04/16 07:45:35;;;;;;;5.47;4.97;;;11.00;99.90;;;;;;5054415;28;20445;-60
2022/04/16 07:48:02;;;;;;;5.43;4.93;;;11.10;99.90;;;;;;5054259;28;20461;-59
2022/04/16 07:50:29;;;;;;;5.50;5.00;;;11.30;99.90;;;;;;5054188;28;20453;-59
2022/04/16 07:52:57;;;;;;;5.87;5.37;;;11.20;99.90;;;;;;5053971;28;20452;-59
2022/04/16 07:55:27;;;;;;;6.23;5.63;;;11.00;99.90;;;;;;5053922;28;20453;-59
2022/04/16 07:57:55;;;;;;;7.20;6.07;;;11.20;99.90;;;;;;5053819;28;20469;-59
2022/04/16 08:00:22;;;;;;;5.70;5.17;;;11.10;99.90;;;;;;5054036;28;20451;-59
2022/04/16 08:02:49;;;;;;;8.43;5.70;;;11.10;99.90;;;;;;5054079;28;20843;-59
2022/04/16 08:05:16;;;;;;;13.13;5.53;;;11.20;99.90;;;;;;5054199;28;20445;-59
2022/04/16 08:07:44;;;;;;;6.60;5.70;;;11.40;99.90;;;;;;5053603;28;20560;-59
2022/04/16 08:10:12;;;;;;;7.83;5.57;;;11.50;99.90;;;;;;5053597;28;20944;-59
2022/04/16 08:12:40;;;;;;;7.03;5.73;;;11.60;99.90;;;;;;5053618;28;20863;-59
2022/04/16 08:15:09;;;;;;;7.73;6.47;;;11.60;99.90;;;;;;5053512;28;20954;-59
2022/04/16 08:17:37;;;;;;;7.57;6.20;;;11.80;99.90;;;;;;5053737;28;20552;-59
2022/04/16 08:20:05;;;;;;;6.67;5.90;;;11.70;99.90;;;;;;5053641;28;20449;-59
2022/04/16 08:22:34;;;;;;;6.67;6.07;;;11.80;99.90;;;;;;5053735;28;20767;-59
2022/04/16 08:27:57;;;;;;;5.93;5.33;;;11.60;99.90;;;;;;5028878;28;20449;-59
2022/04/16 08:30:24;;;;;;;8.43;7.03;;;11.60;99.90;;;;;;5052551;28;20872;-59
2022/04/16 08:32:52;;;;;;;6.30;5.70;;;11.60;99.90;;;;;;5053298;28;21010;-59
2022/04/16 08:35:21;;;;;;;7.63;5.50;;;11.70;99.90;;;;;;5053619;28;20446;-59
2022/04/16 08:37:50;;;;;;;6.43;5.83;;;11.70;99.90;;;;;;5053074;28;20465;-58
2022/04/16 08:40:21;;;;;;;6.40;5.53;;;12.10;99.90;;;;;;5053273;28;20519;-58
2022/04/16 08:42:50;;;;;;;8.53;6.70;;;12.30;99.90;;;;;;5053516;28;20916;-58
2022/04/16 08:45:18;;;;;;;7.63;6.13;;;12.40;99.90;;;;;;5053087;28;20915;-59
2022/04/16 08:47:46;;;;;;;7.13;6.27;;;12.50;99.90;;;;;;5053064;28;20465;-59
2022/04/16 08:50:15;;;;;;;8.33;6.37;;;12.20;99.90;;;;;;5053422;28;20456;-58
2022/04/16 08:52:42;;;;;;;6.50;5.93;;;12.00;99.90;;;;;;5053229;28;20485;-58
2022/04/16 08:55:12;;;;;;;7.33;6.50;;;11.70;99.90;;;;;;5052995;28;20653;-58
2022/04/16 08:57:41;;;;;;;10.63;6.60;;;11.70;99.90;;;;;;5053165;28;20799;-59
2022/04/16 09:00:13;;;;;;;6.90;5.87;;;11.90;99.90;;;;;;5053469;28;20456;-59
2022/04/16 09:02:56;;;;;;;6.33;5.67;;;12.10;99.90;;;;;;5053409;28;20521;-59
2022/04/16 09:05:26;;;;;;;9.37;6.03;;;12.20;99.90;;;;;;5052833;28;20440;-59
2022/04/16 09:07:55;;;;;;;8.87;6.07;;;12.30;99.90;;;;;;5052979;28;20501;-59
2022/04/16 09:10:27;;;;;;;8.43;7.53;;;12.30;99.90;;;;;;5052975;28;20454;-59
2022/04/16 09:12:56;;;;;;;10.77;7.30;;;12.40;99.90;;;;;;5053048;28;20461;-59
2022/04/16 09:15:25;;;;;;;8.20;6.80;;;12.50;99.90;;;;;;5052863;28;20548;-59
2022/04/16 09:18:00;;;;;;;24.50;9.63;;;12.40;99.90;;;;;;5052752;28;20998;-59
2022/04/16 09:20:32;;;;;;;9.47;8.57;;;12.40;99.90;;;;;;5052920;28;20931;-59
2022/04/16 09:23:00;;;;;;;8.00;7.20;;;12.00;99.90;;;;;;5053045;28;20442;-60
2022/04/16 09:25:31;;;;;;;12.47;8.07;;;11.80;99.90;;;;;;5052948;28;20465;-59
2022/04/16 09:28:05;;;;;;;9.43;7.43;;;11.70;99.90;;;;;;5053039;28;20465;-59
2022/04/16 09:30:37;;;;;;;9.37;8.40;;;11.60;99.90;;;;;;5051634;28;20828;-59
2022/04/16 09:33:08;;;;;;;10.97;7.93;;;11.60;99.90;;;;;;5052743;28;20975;-59
2022/04/16 09:35:36;;;;;;;11.27;8.27;;;11.70;99.90;;;;;;5052968;28;20454;-59
2022/04/16 09:38:06;;;;;;;9.60;8.23;;;11.80;99.90;;;;;;5052664;28;20469;-59
2022/04/16 09:40:35;;;;;;;9.70;7.40;;;11.90;99.90;;;;;;5054317;28;20923;-59
2022/04/16 09:43:04;;;;;;;8.83;7.77;;;11.80;99.90;;;;;;5056358;28;20445;-59
2022/04/16 09:45:32;;;;;;;9.23;7.87;;;11.70;99.90;;;;;;5056681;28;20449;-59
2022/04/16 09:48:00;;;;;;;9.87;8.50;;;11.70;99.90;;;;;;5056669;28;20465;-59
2022/04/16 09:50:30;;;;;;;9.27;7.97;;;11.50;99.90;;;;;;5056702;28;20872;-59
2022/04/16 09:53:02;;;;;;;20.80;8.40;;;11.50;99.90;;;;;;5056178;28;20493;-60
2022/04/16 09:55:30;;;;;;;9.07;6.87;;;11.60;99.90;;;;;;5056584;28;20453;-59
2022/04/16 09:57:59;;;;;;;8.30;6.80;;;11.70;99.90;;;;;;5056292;28;20547;-59
2022/04/16 10:00:27;;;;;;;8.23;7.43;;;11.70;99.90;;;;;;5056420;28;20524;-59
2022/04/16 10:02:55;;;;;;;8.80;7.57;;;11.70;99.90;;;;;;5056431;28;20494;-59
2022/04/16 10:05:23;;;;;;;8.63;7.83;;;11.70;99.90;;;;;;5056384;28;20552;-58
2022/04/16 10:07:53;;;;;;;8.90;7.57;;;11.80;99.90;;;;;;5056103;28;20972;-58
2022/04/16 10:10:25;;;;;;;9.17;7.20;;;11.90;99.90;;;;;;5055937;28;20522;-58
2022/04/16 10:13:00;;;;;;;12.77;8.17;;;11.90;99.90;;;;;;5055737;28;20859;-60
2022/04/16 10:15:42;;;;;;;8.87;7.93;;;12.30;99.90;;;;;;5056319;28;20452;-59
2022/04/16 10:18:12;;;;;;;9.40;7.80;;;12.70;99.90;;;;;;5056269;28;20469;-59
2022/04/16 10:20:51;;;;;;;9.80;6.70;;;12.70;99.00;;;;;;5056358;28;20449;-60
2022/04/16 10:23:30;;;;;;;7.93;6.90;;;12.90;98.90;;;;;;5055786;28;20426;-59
2022/04/16 10:26:02;;;;;;;8.13;7.20;;;12.70;99.00;;;;;;5056220;28;20461;-59
2022/04/16 10:28:40;;;;;;;9.63;7.53;;;12.60;98.90;;;;;;5055985;28;20476;-59
2022/04/16 10:31:19;;;;;;;8.20;7.43;;;12.70;98.90;;;;;;5055623;28;20481;-59
2022/04/16 10:33:58;;;;;;;8.33;6.50;;;12.60;99.60;;;;;;5055726;28;20465;-61
2022/04/16 10:36:32;;;;;;;8.33;6.33;;;12.80;99.10;;;;;;5055664;28;20436;-60
2022/04/16 10:39:01;;;;;;;7.40;6.57;;;13.10;99.00;;;;;;5055742;28;20500;-60
2022/04/16 10:41:29;;;;;;;8.27;6.63;;;13.10;98.10;;;;;;5055445;28;20519;-60
2022/04/16 10:44:00;;;;;;;9.63;7.90;;;13.10;97.60;;;;;;5055448;28;20430;-60
2022/04/16 10:46:43;;;;;;;7.83;6.67;;;13.10;98.20;;;;;;5055460;28;20487;-60
2022/04/16 10:49:11;;;;;;;8.30;6.57;;;13.10;97.20;;;;;;5055694;28;20890;-61
2022/04/16 10:51:39;;;;;;;6.80;6.10;;;13.00;97.10;;;;;;5054729;28;20481;-59
2022/04/16 10:54:11;;;;;;;9.20;7.50;;;12.90;97.50;;;;;;5055153;28;20445;-60
2022/04/16 10:56:40;;;;;;;7.17;6.47;;;13.00;97.60;;;;;;5055611;28;20916;-60
2022/04/16 10:59:08;;;;;;;7.20;6.50;;;13.20;97.20;;;;;;5055041;28;20469;-60
2022/04/16 11:01:35;;;;;;;9.30;6.30;;;13.20;96.30;;;;;;5054879;28;20453;-59
2022/04/16 11:04:13;;;;;;;8.30;7.40;;;13.10;96.80;;;;;;5055043;28;20964;-59
2022/04/16 11:06:45;;;;;;;7.53;6.53;;;13.40;96.30;;;;;;5055069;28;20437;-61
2022/04/16 11:09:17;;;;;;;7.47;6.10;;;13.30;96.20;;;;;;5055188;28;20531;-60
2022/04/16 11:11:44;;;;;;;9.00;6.60;;;13.10;96.40;;;;;;5054563;28;20476;-60
2022/04/16 11:14:11;;;;;;;4.93;4.47;;;13.40;96.80;;;;;;5054722;28;20954;-58
2022/04/16 11:16:45;;;;;;;5.60;5.10;;;13.20;94.20;;;;;;5054722;28;20456;-58
2022/04/16 11:19:15;;;;;;;5.73;4.63;;;13.50;94.80;;;;;;5054524;28;20472;-59
2022/04/16 11:21:43;;;;;;;5.00;4.27;;;;;;;;;;5055218;28;20463;-59
2022/04/16 11:24:10;;;;;;;6.50;5.77;;;13.90;94.20;;;;;;5054611;28;20500;-59
2022/04/16 11:34:55;;;;;;;6.20;5.47;;;13.10;95.00;;;;;;5054316;28;20972;-59
2022/04/16 11:37:22;;;;;;;6.10;4.93;;;13.20;95.30;;;;;;5054099;28;20514;-59
2022/04/16 11:39:59;;;;;;;7.03;5.30;;;13.00;94.40;;;;;;5054672;28;20445;-59
2022/04/16 11:42:29;;;;;;;5.47;4.37;;;13.00;93.60;;;;;;5054269;28;20915;-59
2022/04/16 11:44:57;;;;;;;5.23;4.73;;;13.20;93.90;;;;;;5054460;28;20471;-60
2022/04/16 11:47:25;;;;;;;4.40;4.00;;;13.60;94.70;;;;;;5054346;28;20476;-59
2022/04/16 11:49:54;;;;;;;6.00;4.90;;;13.90;93.20;;;;;;5054487;28;20852;-59
2022/04/16 11:52:25;;;;;;;6.00;5.40;;;14.10;92.10;;;;;;5054250;28;20480;-59
2022/04/16 11:55:04;;;;;;;6.57;5.43;;;14.20;91.70;;;;;;5054146;28;20449;-59
2022/04/16 11:57:33;;;;;;;7.53;5.83;;;14.00;91.50;;;;;;5054222;28;20471;-59
2022/04/16 12:00:02;;;;;;;9.60;5.90;;;13.90;91.70;;;;;;5053878;28;20453;-59
2022/04/16 12:02:32;;;;;;;5.93;5.07;;;13.90;91.60;;;;;;5054192;28;20495;-59
2022/04/16 12:05:11;;;;;;;7.10;6.00;;;13.70;91.60;;;;;;5053779;28;20499;-61
2022/04/16 12:07:41;;;;;;;6.90;5.00;;;13.80;92.20;;;;;;5053753;28;21008;-59
2022/04/16 12:10:10;;;;;;;6.13;5.23;;;14.20;92.10;;;;;;5054231;28;20528;-61
2022/04/16 12:12:47;;;;;;;6.90;5.03;;;16.30;89.80;;;;;;5053665;28;20484;-60
2022/04/16 12:15:22;;;;;;;5.27;4.70;;;16.40;91.80;;;;;;5053951;28;20433;-60
2022/04/16 12:17:50;;;;;;;5.50;5.00;;;16.30;83.20;;;;;;5053502;28;20465;-60
2022/04/16 12:20:17;;;;;;;7.57;5.60;;;16.00;84.20;;;;;;5053831;28;20447;-60
2022/04/16 12:22:49;;;;;;;5.93;5.20;;;15.70;84.70;;;;;;5053873;28;20449;-59
2022/04/16 12:25:18;;;;;;;5.60;5.07;;;16.30;85.30;;;;;;5053640;28;20802;-60
2022/04/16 12:27:48;;;;;;;6.73;5.20;;;17.00;83.40;;;;;;5053742;28;20582;-59
2022/04/16 12:30:16;;;;;;;5.77;5.27;;;17.40;79.80;;;;;;5053309;28;20995;-59
2022/04/16 12:32:54;;;;;;;8.30;5.50;;;17.20;78.40;;;;;;5053202;28;20505;-59
2022/04/16 12:35:21;;;;;;;5.80;5.00;;;17.60;76.50;;;;;;5053594;28;20433;-59
2022/04/16 12:37:48;;;;;;;7.10;5.20;;;16.80;76.20;;;;;;5053501;28;20465;-59
2022/04/16 12:40:15;;;;;;;4.80;4.30;;;16.90;78.00;;;;;;5053688;28;20446;-60
2022/04/16 12:42:42;;;;;;;6.83;5.73;;;16.70;76.50;;;;;;5052960;28;20479;-59
2022/04/16 12:45:12;;;;;;;6.23;5.73;;;16.10;78.30;;;;;;5053551;28;20453;-60
2022/04/16 12:47:39;;;;;;;6.60;5.30;;;15.90;79.70;;;;;;5053476;28;20548;-59
2022/04/16 12:50:09;;;;;;;5.83;5.20;;;16.10;77.80;;;;;;5053199;28;20452;-60
2022/04/16 12:52:36;;;;;;;6.00;4.43;;;16.10;76.80;;;;;;5053300;28;20493;-59
2022/04/16 12:55:08;;;;;;;4.50;4.10;;;16.20;74.10;;;;;;5053024;28;20460;-60
2022/04/16 12:57:36;;;;;;;5.07;4.50;;;16.70;77.40;;;;;;5053065;28;20552;-60
2022/04/16 13:00:04;;;;;;;9.43;4.40;;;16.90;75.50;;;;;;5053312;28;20536;-59
2022/04/16 13:02:33;;;;;;;4.80;4.37;;;17.80;83.00;;;;;;5052847;28;20456;-59
2022/04/16 13:05:01;;;;;;;4.90;4.30;;;;;;;;;;5053028;28;20449;-60
2022/04/16 13:07:28;;;;;;;5.20;4.50;;;18.50;71.70;;;;;;5052862;28;20501;-59
2022/04/16 13:09:55;;;;;;;5.17;4.63;;;18.10;69.00;;;;;;5053048;28;20862;-59
2022/04/16 13:12:22;;;;;;;7.03;5.67;;;18.30;69.00;;;;;;5053082;28;20564;-59
2022/04/16 13:14:49;;;;;;;5.03;4.53;;;18.20;70.20;;;;;;5053131;28;20437;-59
2022/04/16 13:17:17;;;;;;;6.27;5.10;;;17.90;67.30;;;;;;5056841;28;20451;-59